Portada
METAR-TAF:

METAR-TAF

Aeropuertos :

Saint-Etienne, Francia

Aeropuerto de Saint-Étienne - Bouthéon

latitud: 45-32N, longitud: 004-18E, altitud: 404 m

Observación

El informe se hizo hace 16 minutos, a las 09:00 UTC
Viento 10 kt del sureste
Temperatura 15°C
Humedad 41%
Presión 1016 hPa
Visibilidad 10 km o más
sin nubes por debajo de 1500 m y sin presencia de cumulonimbus.

METAR: LFMH 240900Z AUTO 14010KT CAVOK 15/02 Q1016 NOSIG

Hora: 11:16 (09:16 UTC)

Pronóstico

El informe se hizo hace 1 hora y 16 minutos, a las 08:00 UTC
Pronóstico válido del 24 a las 09 UTC al 25 a las 09 UTC
Viento 10 kt del sur
Visibilidad 10 km o más
sin nubes por debajo de 1500 m y sin presencia de cumulonimbus.

TAF: LFMH 240800Z 2409/2509 19010KT CAVOK

Observaciones y pronósticos meteorológicos de más de 4000 aeropuertos (mensajes METAR y TAF).

Los puntos amarillos y rojos representan las estaciones disponibles.

Ponga el ratón en el punto deseado para ver el nombre de la estación.

Haga clic para ver las observaciones y los pronósticos meteorológicos.

Para cambiar el mapa : haga clic en los botones verdes con una cruz de color negro para hacer un zoom, en el botón verde con un guión para alejar o en las flechas verdes para mapas adyacentes.


METAR-TAF: